Time;durP1;ratioP1;P1;durP2;ratioP2;P2;SDS_P1;SDS_P2;PMS_P1;PMS_P2;Temp;Humidity;BMP_temperature;BMP_pressure;BME280_temperature;BME280_humidity;BME280_pressure;Samples;Min_cycle;Max_cycle;Signal;HPM_P1;HPM_P2
2021/07/11 00:02:20;;;;;;;1.85;1.50;;;18.00;1.00;;;;;;5034193;28;20025;-77
2021/07/11 00:04:45;;;;;;;1.27;1.10;;;18.00;1.00;;;;;;5051675;28;20033;-76
2021/07/11 00:07:14;;;;;;;1.52;1.40;;;18.00;1.00;;;;;;5034019;28;20033;-76
2021/07/11 00:09:43;;;;;;;2.55;1.52;;;17.90;1.00;;;;;;5051933;28;20103;-77
2021/07/11 00:12:09;;;;;;;2.35;1.58;;;17.90;1.00;;;;;;5051768;28;20437;-77
2021/07/11 00:14:34;;;;;;;2.28;1.50;;;17.90;1.00;;;;;;5033880;28;20116;-75
2021/07/11 00:17:00;;;;;;;1.55;1.10;;;17.80;1.00;;;;;;5051814;28;20478;-75
2021/07/11 00:19:26;;;;;;;2.85;2.28;;;17.80;1.00;;;;;;5052282;28;20032;-76
2021/07/11 00:21:51;;;;;;;2.42;1.83;;;17.70;1.00;;;;;;5033977;28;20021;-77
2021/07/11 00:24:17;;;;;;;2.88;1.75;;;17.60;1.00;;;;;;5051503;28;20100;-76
2021/07/11 00:26:42;;;;;;;1.40;1.30;;;17.60;1.00;;;;;;5033737;28;20029;-77
2021/07/11 00:29:08;;;;;;;1.73;1.40;;;17.50;1.00;;;;;;5051744;28;20079;-77
2021/07/11 00:31:34;;;;;;;1.50;1.40;;;17.50;1.00;;;;;;5051607;28;20100;-79
2021/07/11 00:33:59;;;;;;;2.72;1.75;;;17.40;1.00;;;;;;5033586;28;20103;-77
2021/07/11 00:36:25;;;;;;;1.50;1.40;;;17.40;1.00;;;;;;5051599;28;20063;-76
2021/07/11 00:38:50;;;;;;;1.50;1.40;;;17.30;1.00;;;;;;5033612;28;20437;-77
2021/07/11 00:41:16;;;;;;;1.50;1.40;;;17.30;1.00;;;;;;5051526;28;20039;-76
2021/07/11 00:43:41;;;;;;;2.83;1.88;;;17.20;1.00;;;;;;5033634;28;20464;-77
2021/07/11 00:46:07;;;;;;;1.77;1.50;;;17.20;1.00;;;;;;5051226;28;20036;-76
2021/07/11 00:48:33;;;;;;;1.50;1.40;;;17.20;1.00;;;;;;5051493;28;20100;-75
2021/07/11 00:50:58;;;;;;;2.78;1.40;;;17.20;1.00;;;;;;5051531;28;20036;-77
2021/07/11 00:53:24;;;;;;;2.33;1.70;;;17.10;1.00;;;;;;5051662;28;20486;-76
2021/07/11 00:55:50;;;;;;;4.60;1.58;;;17.10;1.00;;;;;;5049971;28;20517;-76
2021/07/11 00:58:16;;;;;;;2.85;1.90;;;17.10;1.00;;;;;;5033412;28;20048;-76
2021/07/11 01:00:51;;;;;;;3.05;1.60;;;17.20;1.00;;;;;;5051360;28;20478;-76
2021/07/11 01:03:31;;;;;;;1.17;1.13;;;17.10;1.00;;;;;;5050556;28;20021;-76
2021/07/11 01:05:59;;;;;;;1.45;1.30;;;17.10;1.00;;;;;;5053749;28;20027;-77
2021/07/11 01:08:59;;;;;;;2.70;1.20;;;17.10;1.00;;;;;;5055081;28;20036;-76
2021/07/11 01:11:27;;;;;;;3.38;2.13;;;17.10;1.00;;;;;;5044027;28;20037;-76
2021/07/11 01:13:56;;;;;;;3.58;1.42;;;17.00;1.00;;;;;;5054989;28;20033;-76
2021/07/11 01:16:28;;;;;;;2.25;2.05;;;17.10;1.00;;;;;;5054869;28;20025;-76
2021/07/11 01:19:04;;;;;;;2.55;1.63;;;17.10;1.00;;;;;;5053670;28;20114;-76
2021/07/11 01:21:35;;;;;;;2.65;1.40;;;17.10;1.00;;;;;;5053431;28;20021;-76
2021/07/11 01:24:16;;;;;;;2.70;1.88;;;17.10;1.00;;;;;;5054652;28;20086;-77
2021/07/11 01:26:45;;;;;;;2.10;1.60;;;17.10;1.00;;;;;;5054730;28;20013;-76
2021/07/11 01:29:11;;;;;;;2.35;1.42;;;17.10;1.00;;;;;;5054430;28;20037;-76
2021/07/11 01:31:37;;;;;;;1.90;1.20;;;17.10;1.00;;;;;;5053558;28;20024;-77
2021/07/11 01:34:03;;;;;;;1.88;1.27;;;17.10;1.00;;;;;;5054600;28;20115;-77
2021/07/11 01:36:28;;;;;;;1.30;1.20;;;17.10;1.00;;;;;;5036704;28;20044;-76
2021/07/11 01:38:54;;;;;;;1.60;1.50;;;17.10;1.00;;;;;;5054827;28;20031;-76
2021/07/11 01:41:21;;;;;;;1.63;1.52;;;17.10;1.00;;;;;;5054472;28;20440;-75
2021/07/11 01:43:52;;;;;;;1.73;1.58;;;17.10;1.00;;;;;;5054178;28;20486;-77
2021/07/11 01:46:18;;;;;;;;;;;17.10;1.00;;;;;;5053646;28;20120;-77
2021/07/11 01:48:44;;;;;;;1.63;1.52;;;17.10;1.00;;;;;;5054540;28;19984;-75
2021/07/11 01:51:10;;;;;;;1.67;1.58;;;17.10;1.00;;;;;;5053051;28;20055;-76
2021/07/11 01:53:40;;;;;;;1.20;1.10;;;17.10;1.00;;;;;;5036320;28;20033;-76
2021/07/11 01:56:07;;;;;;;1.58;1.30;;;17.10;1.00;;;;;;5054155;28;20033;-77
2021/07/11 01:58:33;;;;;;;2.30;1.25;;;17.00;1.00;;;;;;5054511;28;20105;-77
2021/07/11 02:01:02;;;;;;;1.83;1.48;;;17.00;1.00;;;;;;5054262;28;20486;-77
2021/07/11 02:03:28;;;;;;;1.63;1.50;;;17.10;1.00;;;;;;5054403;28;20546;-76
2021/07/11 02:05:54;;;;;;;1.70;1.50;;;17.00;1.00;;;;;;5061762;28;20032;-76
2021/07/11 02:08:20;;;;;;;1.30;1.20;;;17.00;1.00;;;;;;5062619;28;20028;-75
2021/07/11 02:10:48;;;;;;;1.38;1.27;;;17.10;1.00;;;;;;5079611;28;20043;-76
2021/07/11 02:13:23;;;;;;;4.25;1.63;;;17.10;1.00;;;;;;5078747;28;20013;-76
2021/07/11 02:15:50;;;;;;;1.85;1.38;;;17.00;1.00;;;;;;5078232;28;20073;-76
2021/07/11 02:18:19;;;;;;;1.73;1.63;;;17.10;1.00;;;;;;5079852;28;20021;-76
2021/07/11 02:20:48;;;;;;;1.40;1.30;;;17.10;1.00;;;;;;5079739;28;20017;-76
2021/07/11 02:23:15;;;;;;;1.30;1.20;;;17.10;1.00;;;;;;5079054;28;20041;-76
2021/07/11 02:25:44;;;;;;;1.40;1.30;;;17.10;1.00;;;;;;5062251;28;20025;-76
2021/07/11 02:28:09;;;;;;;1.30;1.20;;;17.10;1.00;;;;;;5056969;28;20029;-76
2021/07/11 02:30:41;;;;;;;1.40;1.30;;;17.10;1.00;;;;;;5054212;28;20132;-76
2021/07/11 02:33:11;;;;;;;;;;;17.00;1.00;;;;;;5054706;28;20389;-75
2021/07/11 02:35:40;;;;;;;1.45;1.35;;;17.00;1.00;;;;;;5053906;28;20293;-75
2021/07/11 02:38:07;;;;;;;1.85;1.70;;;17.00;1.00;;;;;;5053998;28;20040;-75
2021/07/11 02:40:34;;;;;;;2.72;1.38;;;17.00;1.00;;;;;;5054681;28;20021;-75
2021/07/11 02:43:02;;;;;;;1.33;1.10;;;17.00;1.00;;;;;;5052476;28;20108;-76
2021/07/11 02:45:29;;;;;;;2.17;1.50;;;17.00;1.00;;;;;;5053520;28;20033;-77
2021/07/11 02:47:55;;;;;;;2.53;1.67;;;17.00;1.00;;;;;;5035587;28;20130;-76
2021/07/11 02:50:21;;;;;;;1.90;1.70;;;16.90;1.00;;;;;;5053470;28;20178;-76
2021/07/11 02:52:46;;;;;;;2.38;2.17;;;17.00;1.00;;;;;;5053209;28;20091;-76
2021/07/11 02:55:24;;;;;;;6.07;1.40;;;17.00;1.00;;;;;;5052966;28;20478;-78
2021/07/11 02:57:56;;;;;;;4.15;3.75;;;17.00;1.00;;;;;;5035231;28;20028;-76
2021/07/11 03:00:22;;;;;;;1.63;1.52;;;17.00;1.00;;;;;;5053186;28;20085;-76
2021/07/11 03:02:49;;;;;;;4.05;1.80;;;17.00;1.00;;;;;;5051676;28;20029;-77
2021/07/11 03:05:21;;;;;;;2.05;1.48;;;17.00;1.00;;;;;;5052706;28;20086;-76
2021/07/11 03:07:46;;;;;;;3.10;1.40;;;17.00;1.00;;;;;;5051903;28;20032;-76
2021/07/11 03:10:14;;;;;;;1.92;1.50;;;17.00;1.00;;;;;;5052793;28;20482;-76
2021/07/11 03:12:40;;;;;;;1.90;1.60;;;17.00;1.00;;;;;;5052829;28;20033;-76
2021/07/11 03:15:07;;;;;;;2.88;1.50;;;17.00;1.00;;;;;;5052529;28;20029;-76
2021/07/11 03:17:34;;;;;;;2.88;1.30;;;17.00;1.00;;;;;;5052644;28;20087;-76
2021/07/11 03:20:00;;;;;;;1.50;1.40;;;16.90;1.00;;;;;;5051327;28;20505;-76
2021/07/11 03:22:29;;;;;;;2.47;1.27;;;17.00;1.00;;;;;;5052614;28;20108;-77
2021/07/11 03:25:01;;;;;;;1.60;1.50;;;16.90;1.00;;;;;;5051093;28;20025;-76
2021/07/11 03:27:30;;;;;;;2.30;1.63;;;16.90;1.00;;;;;;5051883;28;20021;-76
2021/07/11 03:30:08;;;;;;;1.50;1.40;;;16.90;1.00;;;;;;5052351;28;20037;-76
2021/07/11 03:32:39;;;;;;;1.30;1.20;;;16.90;1.00;;;;;;5051150;28;20031;-76
2021/07/11 03:35:06;;;;;;;3.35;1.55;;;16.80;1.00;;;;;;5052664;28;20053;-76
2021/07/11 03:37:36;;;;;;;1.63;1.50;;;16.80;1.00;;;;;;5050987;28;20029;-75
2021/07/11 03:40:03;;;;;;;2.35;1.42;;;16.80;1.00;;;;;;5050906;28;20513;-77
2021/07/11 03:42:33;;;;;;;2.92;1.35;;;16.90;1.00;;;;;;5052218;28;20041;-76
2021/07/11 03:45:00;;;;;;;1.43;1.30;;;16.90;1.00;;;;;;5091727;22;20044;-72
2021/07/11 03:47:37;;;;;;;1.70;1.60;;;16.80;1.00;;;;;;5086195;28;20077;-72
2021/07/11 03:50:05;;;;;;;1.98;1.73;;;16.90;1.00;;;;;;5085252;28;20028;-72
2021/07/11 03:52:39;;;;;;;2.25;1.65;;;16.80;1.00;;;;;;5064857;28;20374;-72
2021/07/11 03:55:07;;;;;;;1.40;1.30;;;16.80;1.00;;;;;;5084934;28;20025;-73
2021/07/11 03:57:33;;;;;;;2.17;1.40;;;16.80;1.00;;;;;;5082036;28;20496;-73
2021/07/11 04:00:01;;;;;;;1.15;1.00;;;16.80;1.00;;;;;;5082371;28;20024;-73
2021/07/11 04:02:28;;;;;;;4.43;1.55;;;16.80;1.00;;;;;;5075879;28;20027;-73
2021/07/11 04:04:56;;;;;;;1.90;1.45;;;16.90;1.00;;;;;;5087183;28;20035;-73
2021/07/11 04:07:23;;;;;;;1.85;1.40;;;16.90;1.00;;;;;;5070122;28;20052;-72
2021/07/11 04:09:50;;;;;;;2.28;1.65;;;16.90;1.00;;;;;;5075733;28;20031;-72
2021/07/11 04:12:15;;;;;;;1.42;1.30;;;16.90;1.00;;;;;;5072246;28;20048;-73
2021/07/11 04:14:42;;;;;;;1.80;1.40;;;16.90;1.00;;;;;;5054339;28;20035;-72
2021/07/11 04:17:09;;;;;;;1.60;1.50;;;17.00;1.00;;;;;;5057718;28;20497;-72
2021/07/11 04:19:41;;;;;;;1.70;1.60;;;17.00;1.00;;;;;;5076411;28;20032;-72
2021/07/11 04:22:10;;;;;;;1.85;1.27;;;17.00;1.00;;;;;;5076313;28;20048;-72
2021/07/11 04:24:36;;;;;;;1.65;1.35;;;17.10;1.00;;;;;;5090106;28;20032;-73
2021/07/11 04:27:03;;;;;;;4.05;1.50;;;17.10;1.00;;;;;;5078140;28;20074;-72
2021/07/11 04:29:33;;;;;;;1.40;1.30;;;17.10;1.00;;;;;;5079291;28;20032;-72
2021/07/11 04:32:00;;;;;;;1.52;1.42;;;17.20;1.00;;;;;;5079790;28;20027;-72
2021/07/11 04:34:31;;;;;;;1.55;1.30;;;17.20;1.00;;;;;;5074181;28;20074;-72
2021/07/11 04:36:58;;;;;;;1.55;1.45;;;17.20;1.00;;;;;;5071806;28;20516;-73
2021/07/11 04:39:24;;;;;;;1.92;1.63;;;17.30;1.00;;;;;;5056488;28;20111;-73
2021/07/11 04:41:50;;;;;;;1.35;1.25;;;17.30;1.00;;;;;;5076113;28;20100;-72
2021/07/11 04:44:17;;;;;;;1.98;1.30;;;17.30;1.00;;;;;;5075603;28;20572;-73
2021/07/11 04:46:42;;;;;;;1.83;1.30;;;17.30;1.00;;;;;;5058242;28;20036;-73
2021/07/11 04:49:08;;;;;;;3.45;1.15;;;17.30;1.00;;;;;;5075656;28;20386;-72
2021/07/11 04:51:34;;;;;;;1.60;1.50;;;17.40;1.00;;;;;;5076792;28;20027;-72
2021/07/11 04:54:00;;;;;;;3.00;1.25;;;17.40;1.00;;;;;;5076459;28;20436;-73
2021/07/11 04:56:25;;;;;;;1.48;1.38;;;17.40;1.00;;;;;;5058207;28;20433;-73
2021/07/11 04:58:51;;;;;;;2.17;1.98;;;17.40;1.00;;;;;;5076322;28;20021;-72
2021/07/11 05:01:17;;;;;;;3.47;1.83;;;17.50;1.00;;;;;;5075910;28;20024;-72
2021/07/11 05:03:42;;;;;;;2.40;1.67;;;17.50;1.00;;;;;;5075583;28;20427;-72
2021/07/11 05:06:08;;;;;;;2.28;1.38;;;17.50;1.00;;;;;;5075606;28;20107;-72
2021/07/11 05:08:34;;;;;;;3.50;1.20;;;17.50;1.00;;;;;;5075909;28;20025;-73
2021/07/11 05:10:59;;;;;;;1.50;1.40;;;17.50;1.00;;;;;;5082889;28;20051;-72
2021/07/11 05:13:25;;;;;;;1.83;1.35;;;17.50;1.00;;;;;;5082516;28;20028;-73
2021/07/11 05:15:51;;;;;;;1.73;1.15;;;17.40;1.00;;;;;;5086059;28;20043;-72
2021/07/11 05:18:16;;;;;;;3.83;1.50;;;17.40;1.00;;;;;;5085327;28;20107;-73
2021/07/11 05:20:42;;;;;;;1.65;1.40;;;17.40;1.00;;;;;;5086883;28;20039;-73
2021/07/11 05:23:08;;;;;;;1.67;1.30;;;17.40;1.00;;;;;;5084004;28;20063;-73
2021/07/11 05:25:33;;;;;;;2.22;1.60;;;17.40;1.00;;;;;;5075590;28;20024;-73
2021/07/11 05:28:00;;;;;;;2.85;1.83;;;17.40;1.00;;;;;;5057572;28;20384;-72
2021/07/11 05:30:26;;;;;;;1.55;1.30;;;17.40;1.00;;;;;;5075497;28;20122;-72
2021/07/11 05:32:51;;;;;;;1.70;1.40;;;17.30;1.00;;;;;;5089609;28;20024;-72
2021/07/11 05:35:17;;;;;;;5.43;1.67;;;17.20;1.00;;;;;;5091052;28;20028;-73
2021/07/11 05:37:43;;;;;;;2.85;1.60;;;17.10;1.00;;;;;;5094221;28;20021;-73
2021/07/11 05:40:08;;;;;;;1.98;1.75;;;17.10;1.00;;;;;;5094919;28;20025;-72
2021/07/11 05:42:34;;;;;;;2.35;1.80;;;17.20;1.00;;;;;;5095192;28;20032;-72
2021/07/11 05:45:00;;;;;;;1.70;1.40;;;17.20;1.00;;;;;;5077726;28;20111;-72
2021/07/11 05:47:26;;;;;;;3.22;1.65;;;17.40;1.00;;;;;;5096150;28;20016;-72
2021/07/11 05:49:51;;;;;;;2.10;1.50;;;17.60;1.00;;;;;;5084211;28;20060;-73
2021/07/11 05:52:17;;;;;;;4.20;1.42;;;17.80;1.00;;;;;;5074818;28;20043;-74
2021/07/11 05:54:42;;;;;;;2.00;1.38;;;17.90;1.00;;;;;;5075048;28;20051;-74
2021/07/11 05:57:08;;;;;;;2.47;1.20;;;18.00;1.00;;;;;;5094256;28;20040;-72
2021/07/11 05:59:34;;;;;;;2.00;1.38;;;18.10;1.00;;;;;;5057654;28;20032;-74
2021/07/11 06:01:59;;;;;;;3.65;1.40;;;18.20;1.00;;;;;;5073652;28;20173;-73
2021/07/11 06:04:25;;;;;;;3.97;1.50;;;18.40;1.00;;;;;;5074706;28;20405;-73
2021/07/11 06:06:51;;;;;;;1.00;1.00;;;18.60;1.00;;;;;;5074819;28;20050;-72
2021/07/11 06:09:16;;;;;;;1.30;1.20;;;19.20;99.90;;;;;;5075684;28;20028;-72
2021/07/11 06:11:42;;;;;;;1.60;1.50;;;20.10;99.90;;;;;;5057436;28;20473;-73
2021/07/11 06:14:08;;;;;;;2.97;1.20;;;20.70;99.90;;;;;;5074598;28;20056;-73
2021/07/11 06:16:34;;;;;;;2.55;1.33;;;20.80;99.90;;;;;;5075210;28;20461;-72
2021/07/11 06:19:00;;;;;;;3.85;1.17;;;21.00;99.90;;;;;;5075485;28;20497;-72
2021/07/11 06:21:25;;;;;;;1.33;1.15;;;21.70;99.90;;;;;;5057438;28;20044;-72
2021/07/11 06:23:51;;;;;;;2.97;1.20;;;21.70;99.90;;;;;;5075352;28;20029;-73
2021/07/11 06:26:16;;;;;;;1.73;1.00;;;22.00;99.90;;;;;;5075060;28;20446;-73
2021/07/11 06:28:42;;;;;;;1.58;1.10;;;22.20;99.90;;;;;;5075931;28;20020;-73
2021/07/11 06:31:07;;;;;;;1.55;1.20;;;22.30;99.90;;;;;;5059526;28;20067;-73
2021/07/11 06:33:33;;;;;;;1.50;1.10;;;22.00;99.90;;;;;;5076181;28;20120;-73
2021/07/11 06:35:58;;;;;;;1.55;1.40;;;21.40;99.90;;;;;;5080545;28;20097;-72
2021/07/11 06:38:24;;;;;;;1.73;1.15;;;21.20;99.90;;;;;;5081671;28;20025;-73
2021/07/11 06:40:50;;;;;;;2.58;1.30;;;21.20;99.90;;;;;;5081457;28;20428;-72
2021/07/11 06:43:15;;;;;;;1.63;1.20;;;20.80;99.90;;;;;;5082840;28;20028;-72
2021/07/11 06:45:42;;;;;;;1.13;0.98;;;20.80;99.90;;;;;;5086114;28;20032;-73
2021/07/11 06:48:08;;;;;;;1.90;1.35;;;20.60;99.90;;;;;;5065876;28;20028;-73
2021/07/11 06:50:33;;;;;;;1.35;1.23;;;20.50;99.90;;;;;;5081823;28;20090;-73
2021/07/11 06:52:59;;;;;;;1.30;1.20;;;20.40;99.90;;;;;;5074515;28;20028;-73
2021/07/11 06:55:25;;;;;;;1.15;1.05;;;20.20;99.90;;;;;;5073964;28;20501;-73
2021/07/11 06:57:50;;;;;;;2.38;1.50;;;20.40;99.90;;;;;;5074108;28;20085;-74
2021/07/11 07:00:16;;;;;;;1.50;1.40;;;20.50;99.90;;;;;;5074153;28;20397;-73
2021/07/11 07:02:42;;;;;;;1.42;1.08;;;20.40;99.90;;;;;;5073178;28;20401;-74
2021/07/11 07:05:09;;;;;;;3.05;1.42;;;20.70;99.90;;;;;;5073787;28;20023;-73
2021/07/11 07:07:35;;;;;;;1.33;1.17;;;20.70;99.90;;;;;;5056779;28;20024;-72
2021/07/11 07:10:05;;;;;;;1.23;1.13;;;20.00;99.90;;;;;;5073978;28;20423;-72
2021/07/11 07:12:31;;;;;;;1.55;1.20;;;20.20;99.90;;;;;;5074380;28;20031;-73
2021/07/11 07:14:56;;;;;;;1.13;1.10;;;20.50;99.90;;;;;;5073586;28;20020;-74
2021/07/11 07:17:22;;;;;;;5.75;1.42;;;20.40;99.90;;;;;;5073877;28;20153;-73
2021/07/11 07:19:48;;;;;;;3.97;1.35;;;20.30;99.90;;;;;;5073723;28;20023;-74
2021/07/11 07:22:13;;;;;;;1.70;1.20;;;20.30;99.90;;;;;;5073657;28;20576;-73
2021/07/11 07:24:39;;;;;;;4.53;1.35;;;20.30;99.90;;;;;;5073267;28;20047;-73
2021/07/11 07:27:04;;;;;;;1.90;1.35;;;20.50;99.90;;;;;;5071797;28;20020;-74
2021/07/11 07:29:30;;;;;;;2.83;1.58;;;20.50;99.90;;;;;;5072218;28;20389;-73
2021/07/11 07:31:56;;;;;;;1.40;1.30;;;20.60;99.90;;;;;;5073127;28;20060;-73
2021/07/11 07:34:21;;;;;;;1.67;1.27;;;20.90;99.90;;;;;;5055190;28;20020;-72
2021/07/11 07:36:47;;;;;;;1.92;1.20;;;21.10;99.90;;;;;;5073092;28;20036;-75
2021/07/11 07:39:13;;;;;;;5.30;1.50;;;20.70;99.90;;;;;;5094504;28;20081;-72
2021/07/11 07:41:38;;;;;;;4.38;2.33;;;20.70;99.90;;;;;;5077573;28;20391;-74
2021/07/11 07:44:05;;;;;;;1.38;1.20;;;20.70;99.90;;;;;;5073761;28;20040;-72
2021/07/11 07:46:31;;;;;;;1.50;1.40;;;20.60;99.90;;;;;;5073308;28;20319;-74
2021/07/11 07:48:56;;;;;;;1.65;1.55;;;20.50;99.90;;;;;;5071945;28;20021;-72
2021/07/11 07:51:22;;;;;;;2.78;1.25;;;20.60;99.90;;;;;;5072854;28;20096;-73
2021/07/11 07:53:48;;;;;;;2.60;1.10;;;21.00;99.90;;;;;;5073270;28;20028;-74
2021/07/11 07:56:13;;;;;;;1.23;1.20;;;21.00;99.90;;;;;;5071788;28;20029;-72
2021/07/11 07:58:39;;;;;;;1.58;1.48;;;21.00;99.90;;;;;;5073305;28;20107;-73
2021/07/11 08:01:04;;;;;;;2.17;1.50;;;20.90;99.90;;;;;;5073697;28;20040;-75
2021/07/11 08:03:30;;;;;;;2.50;1.40;;;20.90;99.90;;;;;;5073714;28;20033;-73
2021/07/11 08:05:55;;;;;;;1.90;1.40;;;20.60;99.90;;;;;;5076671;28;20021;-74
2021/07/11 08:08:21;;;;;;;1.80;1.13;;;20.40;99.90;;;;;;5073101;28;20074;-72
2021/07/11 08:10:47;;;;;;;1.88;1.48;;;20.70;99.90;;;;;;5073103;28;20013;-73
2021/07/11 08:13:12;;;;;;;1.65;1.30;;;20.80;99.90;;;;;;5072519;28;20051;-74
2021/07/11 08:15:38;;;;;;;2.10;1.50;;;20.60;99.90;;;;;;5073194;28;20075;-74
2021/07/11 08:18:03;;;;;;;2.38;1.40;;;21.00;99.90;;;;;;5054685;28;20024;-73
2021/07/11 08:20:29;;;;;;;2.58;1.42;;;21.40;99.90;;;;;;5073986;28;20032;-74
2021/07/11 08:22:55;;;;;;;1.30;1.20;;;21.40;99.90;;;;;;5075515;28;20474;-73
2021/07/11 08:25:21;;;;;;;1.05;0.98;;;21.30;99.90;;;;;;5072344;28;20385;-73
2021/07/11 08:27:47;;;;;;;1.02;1.00;;;21.20;99.90;;;;;;5073165;28;20048;-73
2021/07/11 08:30:14;;;;;;;1.73;1.17;;;21.40;99.90;;;;;;5072929;28;20031;-74
2021/07/11 08:32:40;;;;;;;1.73;1.15;;;21.70;99.90;;;;;;5072682;28;20028;-73
2021/07/11 08:35:07;;;;;;;2.47;1.20;;;21.70;99.90;;;;;;5071602;28;20028;-73
2021/07/11 08:37:33;;;;;;;1.98;1.02;;;21.70;99.90;;;;;;5072519;28;20021;-72
2021/07/11 08:39:59;;;;;;;1.33;1.23;;;21.90;99.90;;;;;;5072366;28;20040;-74
2021/07/11 08:42:25;;;;;;;2.72;1.55;;;21.90;99.90;;;;;;5073959;28;20025;-74
2021/07/11 08:44:52;;;;;;;1.10;1.00;;;21.20;99.90;;;;;;5072337;28;20108;-75
2021/07/11 08:47:21;;;;;;;1.67;1.20;;;21.00;99.90;;;;;;5072485;28;20032;-74
2021/07/11 08:49:47;;;;;;;2.95;1.17;;;21.20;99.90;;;;;;5072505;28;20033;-73
2021/07/11 08:52:14;;;;;;;1.13;1.08;;;21.00;99.90;;;;;;5072244;28;20028;-74
2021/07/11 08:54:40;;;;;;;1.55;1.27;;;20.80;99.90;;;;;;5072044;28;20028;-73
2021/07/11 08:57:11;;;;;;;1.48;1.33;;;20.90;99.90;;;;;;5072214;28;20036;-74
2021/07/11 08:59:38;;;;;;;1.42;1.10;;;21.20;99.90;;;;;;5054246;28;20078;-72
2021/07/11 09:02:04;;;;;;;1.90;1.30;;;20.80;99.90;;;;;;5072495;28;20082;-74
2021/07/11 09:04:45;;;;;;;1.98;1.08;;;20.80;99.90;;;;;;5054447;28;20068;-73
2021/07/11 09:07:19;;;;;;;2.08;1.30;;;20.80;99.90;;;;;;5077965;28;20033;-74
2021/07/11 09:09:51;;;;;;;1.13;0.95;;;21.10;99.90;;;;;;5075291;28;20025;-74
2021/07/11 09:12:18;;;;;;;1.65;0.98;;;21.00;99.90;;;;;;5072061;28;20396;-73
2021/07/11 09:14:44;;;;;;;1.17;1.08;;;21.00;99.90;;;;;;5054173;28;20397;-75
2021/07/11 09:17:13;;;;;;;2.05;0.73;;;21.10;99.90;;;;;;5074053;28;20021;-74
2021/07/11 09:19:45;;;;;;;1.25;0.93;;;21.30;99.90;;;;;;5073054;28;20025;-73
2021/07/11 09:22:13;;;;;;;2.65;1.10;;;21.20;99.90;;;;;;5073340;28;20086;-73
2021/07/11 09:24:53;;;;;;;1.27;0.90;;;21.20;99.90;;;;;;5095769;28;20040;-73
2021/07/11 09:27:22;;;;;;;1.20;1.10;;;21.00;99.90;;;;;;5078599;28;20512;-74
2021/07/11 09:29:48;;;;;;;1.73;0.90;;;20.90;99.90;;;;;;5060438;28;20033;-73
2021/07/11 09:32:30;;;;;;;0.93;0.82;;;20.90;99.90;;;;;;5074194;28;20083;-74
2021/07/11 09:35:11;;;;;;;1.55;1.02;;;20.70;99.90;;;;;;5075741;28;20023;-74
2021/07/11 09:37:39;;;;;;;1.52;1.10;;;20.80;99.90;;;;;;5076060;28;20027;-74
2021/07/11 09:40:06;;;;;;;2.08;1.05;;;20.70;99.90;;;;;;5075682;28;20093;-73
2021/07/11 09:42:37;;;;;;;1.25;1.15;;;20.70;99.90;;;;;;5075290;28;20094;-74
2021/07/11 09:45:05;;;;;;;;;;;20.70;99.90;;;;;;5097804;22;20068;-76
2021/07/11 09:47:32;;;;;;;1.48;1.27;;;20.70;99.90;;;;;;5057215;28;19977;-76
2021/07/11 09:50:10;;;;;;;1.75;0.80;;;20.70;99.90;;;;;;5075081;28;20043;-76
2021/07/11 09:52:39;;;;;;;1.20;1.10;;;21.10;99.90;;;;;;5075077;28;20025;-78
2021/07/11 09:55:37;;;;;;;1.45;1.20;;;21.30;99.90;;;;;;5056947;28;20052;-77
2021/07/11 09:58:05;;;;;;;3.28;1.10;;;21.40;99.90;;;;;;5072820;28;20121;-75
2021/07/11 10:00:40;;;;;;;1.17;1.08;;;21.60;99.90;;;;;;5075637;28;20025;-74
2021/07/11 10:03:12;;;;;;;1.05;0.98;;;21.80;99.90;;;;;;5074562;28;20056;-76
2021/07/11 10:05:38;;;;;;;2.65;1.20;;;22.10;99.90;;;;;;5074519;28;20027;-79
2021/07/11 10:08:05;;;;;;;3.28;1.30;;;22.30;99.90;;;;;;5074863;28;20020;-76
2021/07/11 10:10:33;;;;;;;2.58;1.20;;;21.80;99.90;;;;;;5075057;28;20028;-76
2021/07/11 10:13:00;;;;;;;1.20;1.10;;;21.90;99.90;;;;;;5057431;28;20048;-78
2021/07/11 10:15:31;;;;;;;1.45;0.90;;;22.10;99.90;;;;;;5074826;28;20024;-75
2021/07/11 10:18:09;;;;;;;1.30;1.20;;;21.90;99.90;;;;;;5074044;28;20035;-75
2021/07/11 10:20:36;;;;;;;1.45;1.10;;;21.60;99.90;;;;;;5056244;28;20021;-75
2021/07/11 10:23:03;;;;;;;4.15;1.30;;;21.80;99.90;;;;;;5056837;28;20016;-76
2021/07/11 10:25:31;;;;;;;1.80;1.30;;;22.20;99.90;;;;;;5074498;28;20025;-76
2021/07/11 10:28:09;;;;;;;1.80;1.20;;;22.40;99.90;;;;;;5074713;28;20025;-77
2021/07/11 10:30:38;;;;;;;1.35;1.15;;;22.20;99.90;;;;;;5056602;28;20028;-77
2021/07/11 10:33:14;;;;;;;1.27;1.05;;;22.80;99.90;;;;;;5074163;28;20095;-76
2021/07/11 10:36:05;;;;;;;1.95;1.13;;;22.90;99.90;;;;;;5073092;28;20020;-75
2021/07/11 10:38:32;;;;;;;1.10;1.00;;;22.70;99.90;;;;;;5073806;28;20077;-76
2021/07/11 10:41:28;;;;;;;2.22;1.38;;;22.70;99.90;;;;;;5074274;28;20021;-75
2021/07/11 10:44:06;;;;;;;1.25;0.90;;;22.80;99.90;;;;;;5065175;28;20489;-76
2021/07/11 10:46:36;;;;;;;1.40;1.30;;;23.00;99.90;;;;;;5073839;28;20032;-76
2021/07/11 10:49:13;;;;;;;1.52;1.10;;;22.90;99.90;;;;;;5074055;28;20017;-76
2021/07/11 10:51:46;;;;;;;1.30;1.15;;;23.00;99.90;;;;;;5055805;28;20016;-78
2021/07/11 10:54:20;;;;;;;1.48;1.30;;;23.30;99.90;;;;;;5073656;28;20024;-76
2021/07/11 10:56:46;;;;;;;1.50;1.15;;;22.80;99.90;;;;;;5055502;28;20121;-76
2021/07/11 10:59:24;;;;;;;1.25;1.15;;;22.50;99.90;;;;;;5073236;28;20020;-77
2021/07/11 11:01:50;;;;;;;2.67;1.20;;;22.20;99.90;;;;;;5073054;28;20047;-76
2021/07/11 11:04:16;;;;;;;2.53;1.20;;;22.30;99.90;;;;;;5055909;28;20478;-75
2021/07/11 11:06:41;;;;;;;1.15;1.02;;;22.70;99.90;;;;;;5074087;28;20052;-76
2021/07/11 11:09:07;;;;;;;1.40;1.10;;;22.70;99.90;;;;;;5073186;28;20032;-76
2021/07/11 11:11:32;;;;;;;1.73;1.15;;;22.70;99.90;;;;;;5055267;28;20060;-76
2021/07/11 11:14:06;;;;;;;1.38;1.27;;;22.60;99.90;;;;;;5054928;28;20063;-77
2021/07/11 11:16:45;;;;;;;1.17;1.08;;;22.50;99.90;;;;;;5054686;28;20052;-76
2021/07/11 11:19:15;;;;;;;1.48;1.08;;;22.60;99.90;;;;;;5055069;28;20039;-76
2021/07/11 11:21:41;;;;;;;1.00;1.00;;;22.60;99.90;;;;;;5072852;28;20016;-76
2021/07/11 11:24:07;;;;;;;1.67;1.10;;;22.80;99.90;;;;;;5054540;28;20484;-76
2021/07/11 11:26:33;;;;;;;2.15;1.10;;;22.80;99.90;;;;;;5072513;28;20048;-76
2021/07/11 11:29:01;;;;;;;1.88;1.10;;;22.90;99.90;;;;;;5072480;28;20017;-76
2021/07/11 11:31:32;;;;;;;1.02;0.93;;;22.80;99.90;;;;;;5072758;28;20417;-75
2021/07/11 11:34:06;;;;;;;2.05;0.98;;;22.90;99.90;;;;;;5072450;28;20025;-76
2021/07/11 11:36:37;;;;;;;1.13;0.93;;;23.20;99.90;;;;;;5076253;28;20028;-75
2021/07/11 11:39:09;;;;;;;1.00;0.90;;;23.00;99.90;;;;;;5054566;28;20027;-75
2021/07/11 11:41:37;;;;;;;1.73;1.00;;;22.80;99.90;;;;;;5072537;28;20486;-76
2021/07/11 11:44:15;;;;;;;1.00;0.93;;;22.60;99.90;;;;;;5072184;28;20470;-74
2021/07/11 11:46:46;;;;;;;1.15;1.02;;;22.70;99.90;;;;;;5071936;28;20420;-75
2021/07/11 11:49:14;;;;;;;1.65;1.10;;;22.80;99.90;;;;;;5054771;28;20074;-76
2021/07/11 11:51:46;;;;;;;1.15;1.00;;;23.00;99.90;;;;;;5072493;28;20032;-76
2021/07/11 11:54:20;;;;;;;18.15;16.30;;;23.40;99.90;;;;;;5073431;28;20116;-76
2021/07/11 11:56:46;;;;;;;1.73;1.40;;;24.00;99.90;;;;;;5074656;28;20032;-76
2021/07/11 11:59:14;;;;;;;2.85;1.05;;;24.10;99.90;;;;;;5072115;28;20028;-75
2021/07/11 12:01:40;;;;;;;2.95;1.52;;;24.10;99.90;;;;;;5073453;28;20036;-76
2021/07/11 12:04:16;;;;;;;3.45;1.80;;;23.80;99.90;;;;;;5073722;28;20032;-77
2021/07/11 12:06:47;;;;;;;1.48;1.10;;;23.90;99.90;;;;;;5073290;28;20070;-76
2021/07/11 12:09:14;;;;;;;1.20;1.10;;;24.00;99.90;;;;;;5072139;28;20044;-76
2021/07/11 12:11:40;;;;;;;4.07;1.20;;;24.00;99.90;;;;;;5072250;28;20029;-76
2021/07/11 12:14:11;;;;;;;2.70;1.23;;;23.90;99.90;;;;;;5072310;28;20020;-76
2021/07/11 12:16:37;;;;;;;1.08;1.08;;;24.00;99.90;;;;;;5071772;28;20020;-76
2021/07/11 12:19:07;;;;;;;5.25;1.20;;;23.80;99.90;;;;;;5054045;28;20046;-76
2021/07/11 12:21:38;;;;;;;1.30;1.20;;;23.60;99.90;;;;;;5072142;28;20446;-74
2021/07/11 12:24:11;;;;;;;0.80;0.80;;;23.80;99.90;;;;;;5071978;28;20052;-75
2021/07/11 12:26:43;;;;;;;2.67;2.22;;;23.80;99.90;;;;;;5071942;28;20027;-77
2021/07/11 12:29:09;;;;;;;1.40;1.27;;;24.10;99.90;;;;;;5072155;28;20020;-77
2021/07/11 12:31:36;;;;;;;1.15;0.90;;;24.40;99.90;;;;;;5071899;28;20056;-77
2021/07/11 12:34:07;;;;;;;1.98;1.23;;;24.70;99.60;;;;;;5071836;28;20405;-75
2021/07/11 12:36:38;;;;;;;1.70;0.85;;;25.10;99.80;;;;;;5071943;28;20047;-75
2021/07/11 12:39:18;;;;;;;1.70;1.13;;;25.20;98.70;;;;;;5071791;28;20055;-76
2021/07/11 12:41:44;;;;;;;1.00;0.90;;;25.50;98.30;;;;;;5053566;28;20033;-74
2021/07/11 12:44:10;;;;;;;2.00;1.30;;;25.40;97.90;;;;;;5071299;28;20031;-75
2021/07/11 12:46:35;;;;;;;1.23;0.93;;;25.10;97.70;;;;;;5071518;28;20477;-75
2021/07/11 12:49:10;;;;;;;1.05;0.68;;;24.50;98.10;;;;;;5071829;28;20246;-75
2021/07/11 12:51:40;;;;;;;1.75;1.17;;;24.20;97.90;;;;;;5053388;28;20085;-76
2021/07/11 12:54:14;;;;;;;2.47;1.00;;;24.20;98.20;;;;;;5071383;28;20401;-76
2021/07/11 12:56:49;;;;;;;3.75;1.63;;;24.30;97.90;;;;;;5071506;28;20032;-75
2021/07/11 12:59:15;;;;;;;1.45;1.35;;;24.50;97.90;;;;;;5053894;28;20028;-75